createdAt,value
2022-08-01T00:04:31.785Z,99901.19
2022-08-01T00:09:33.517Z,99897.28
2022-08-01T00:14:35.157Z,99901.38
2022-08-01T00:19:36.781Z,99906.69
2022-08-01T00:24:38.390Z,99894.56
2022-08-01T00:30:12.592Z,99907.03
2022-08-01T00:35:01.692Z,99900.75
2022-08-01T00:40:03.860Z,99906.88
2022-08-01T00:45:06.108Z,99902.44
2022-08-01T00:50:08.543Z,99883.34
2022-08-01T00:55:15.288Z,99878.53
2022-08-01T01:00:17.174Z,99874.97
2022-08-01T01:05:19.061Z,99873.97
2022-08-01T01:10:32.649Z,99880.97
2022-08-01T01:15:58.954Z,99880.63
2022-08-01T01:21:25.734Z,99881.63
2022-08-01T01:26:39.315Z,99872.75
2022-08-01T01:32:04.336Z,99871.38
2022-08-01T01:37:10.266Z,99865.94
2022-08-01T01:42:12.104Z,99861.50
2022-08-01T01:47:17.261Z,99857.09
2022-08-01T01:52:19.869Z,99849.94
2022-08-01T01:57:23.936Z,99850.28
2022-08-01T02:02:25.818Z,99854.50
2022-08-01T02:07:29.102Z,99852.13
2022-08-01T02:12:34.295Z,99848.72
2022-08-01T02:17:40.769Z,99856.75
2022-08-01T02:22:47.536Z,99851.63
2022-08-01T02:28:01.630Z,99851.31
2022-08-01T02:33:15.678Z,99854.00
2022-08-01T02:38:19.278Z,99846.34
2022-08-01T02:43:24.887Z,99847.53
2022-08-01T02:48:28.112Z,99840.53
2022-08-01T02:53:43.819Z,99841.22
2022-08-01T02:58:48.300Z,99835.97
2022-08-01T03:03:51.415Z,99836.28
2022-08-01T03:08:54.848Z,99841.75
2022-08-01T03:13:58.192Z,99846.50
2022-08-01T03:19:02.994Z,99843.09
2022-08-01T03:24:06.440Z,99841.41
2022-08-01T03:29:13.850Z,99843.09
2022-08-01T03:34:16.432Z,99849.94
2022-08-01T03:39:20.319Z,99849.91
2022-08-01T03:44:27.085Z,99841.22
2022-08-01T03:49:32.972Z,99843.09
2022-08-01T03:54:41.209Z,99842.41
2022-08-01T03:59:44.108Z,99858.44
2022-08-01T04:04:46.366Z,99870.69
2022-08-01T04:09:47.951Z,99870.41
2022-08-01T04:14:50.507Z,99871.75
2022-08-01T04:19:52.101Z,99868.00
2022-08-01T04:24:58.210Z,99863.56
2022-08-01T04:30:01.552Z,99860.81
2022-08-01T04:35:22.886Z,99854.66
2022-08-01T04:40:30.527Z,99865.63
2022-08-01T04:45:33.669Z,99860.81
2022-08-01T04:50:37.549Z,99860.63
2022-08-01T04:55:39.142Z,99873.81
2022-08-01T05:00:40.711Z,99875.84
2022-08-01T05:05:42.484Z,99869.00
2022-08-01T05:10:44.259Z,99866.28
2022-08-01T05:15:45.897Z,99861.81
2022-08-01T05:20:48.421Z,99863.16
2022-08-01T05:25:57.410Z,99866.72
2022-08-01T05:30:59.919Z,99869.28
2022-08-01T05:36:01.598Z,99861.69
2022-08-01T05:41:03.243Z,99858.22
2022-08-01T05:46:04.845Z,99849.44
2022-08-01T05:51:06.527Z,99862.91
2022-08-01T05:56:08.190Z,99859.28
2022-08-01T06:01:09.834Z,99862.16
2022-08-01T06:06:11.696Z,99856.28
2022-08-01T06:11:13.651Z,99861.56
2022-08-01T06:16:15.233Z,99865.13
2022-08-01T06:21:16.888Z,99858.81
2022-08-01T06:26:19.586Z,99861.41
2022-08-01T06:31:21.176Z,99870.28
2022-08-01T06:36:22.781Z,99862.91
2022-08-01T06:41:24.601Z,99870.81
2022-08-01T06:46:30.267Z,99869.91
2022-08-01T06:51:33.767Z,99870.31
2022-08-01T06:56:36.292Z,99865.25
2022-08-01T07:01:38.036Z,99866.19
2022-08-01T07:06:41.199Z,99870.25
2022-08-01T07:11:42.847Z,99868.78
2022-08-01T07:16:44.464Z,99876.19
2022-08-01T07:21:46.060Z,99874.19
2022-08-01T07:26:53.821Z,99874.69
2022-08-01T07:31:57.827Z,99875.31
2022-08-01T07:36:59.431Z,99887.06
2022-08-01T07:42:07.509Z,99884.16
2022-08-01T07:47:09.913Z,99891.63
2022-08-01T07:52:11.560Z,99886.31
2022-08-01T07:57:13.219Z,99885.06
2022-08-01T08:02:14.894Z,99879.59
2022-08-01T08:07:17.123Z,99889.31
2022-08-01T08:12:18.791Z,99895.69
2022-08-01T08:17:36.200Z,99888.47
2022-08-01T08:22:38.705Z,99896.28
2022-08-01T08:27:40.283Z,99900.47
2022-08-01T08:32:42.743Z,99898.91
2022-08-01T08:37:47.592Z,99908.97
2022-08-01T08:42:49.651Z,99921.31
2022-08-01T08:47:53.347Z,99924.88
2022-08-01T08:52:57.415Z,99922.78
2022-08-01T08:58:01.564Z,99929.16
2022-08-01T09:03:03.366Z,99933.84
2022-08-01T09:08:08.737Z,99940.63
2022-08-01T09:13:14.018Z,99940.19
2022-08-01T09:18:37.087Z,99939.94
2022-08-01T09:23:54.215Z,99931.66
2022-08-01T09:28:56.641Z,99934.19
2022-08-01T09:34:05.121Z,99931.06
2022-08-01T09:39:13.212Z,99935.66
2022-08-01T09:44:18.660Z,99925.50
2022-08-01T09:49:51.743Z,99929.72
2022-08-01T09:54:57.505Z,99923.25
2022-08-01T10:00:02.195Z,99928.09
2022-08-01T10:05:09.348Z,99919.81
2022-08-01T10:10:16.207Z,99913.25
2022-08-01T10:15:19.389Z,99918.56
2022-08-01T10:20:30.005Z,99919.81
2022-08-01T10:25:46.609Z,99910.44
2022-08-01T10:30:49.644Z,99914.34
2022-08-01T10:35:52.642Z,99911.34
2022-08-01T10:40:55.952Z,99913.06
2022-08-01T10:45:58.092Z,99911.75
2022-08-01T10:51:04.733Z,99911.91
2022-08-01T10:56:19.439Z,99906.19
2022-08-01T11:01:25.751Z,99912.19
2022-08-01T11:06:33.603Z,99908.19
2022-08-01T11:12:07.334Z,99913.03
2022-08-01T11:17:42.568Z,99912.50
2022-08-01T11:23:03.370Z,99909.44
2022-08-01T11:28:32.789Z,99918.66
2022-08-01T11:33:45.760Z,99910.19
2022-08-01T11:38:51.376Z,99905.56
2022-08-01T11:44:21.215Z,99908.97
2022-08-01T11:49:36.018Z,99909.13
2022-08-01T11:54:45.239Z,99918.03
2022-08-01T12:00:02.852Z,99911.34
2022-08-01T12:05:12.120Z,99901.72
2022-08-01T12:10:16.873Z,99892.44
2022-08-01T12:15:21.211Z,99902.78
2022-08-01T12:20:24.260Z,99885.53
2022-08-01T12:25:25.937Z,99888.53
2022-08-01T12:30:28.132Z,99890.00
2022-08-01T12:35:31.002Z,99893.22
2022-08-01T12:40:35.848Z,99891.22
2022-08-01T12:45:54.376Z,99897.88
2022-08-01T12:51:01.442Z,99890.50
2022-08-01T12:56:03.173Z,99893.25
2022-08-01T13:01:10.566Z,99895.25
2022-08-01T13:06:17.836Z,99898.53
2022-08-01T13:11:20.905Z,99894.66
2022-08-01T13:16:30.658Z,99894.16
2022-08-01T13:21:53.839Z,99882.34
2022-08-01T13:27:03.552Z,99884.34
2022-08-01T13:32:29.236Z,99878.31
2022-08-01T13:37:32.355Z,99883.06
2022-08-01T13:42:34.362Z,99885.00
2022-08-01T13:47:36.057Z,99889.50
2022-08-01T13:52:37.632Z,99885.41
2022-08-01T13:57:39.423Z,99893.53
2022-08-01T14:02:41.354Z,99894.47
2022-08-01T14:07:43.829Z,99901.00
2022-08-01T14:12:50.875Z,99905.94
2022-08-01T14:17:52.779Z,99903.72
2022-08-01T14:22:54.425Z,99920.03
2022-08-01T14:27:56.141Z,99922.19
2022-08-01T14:32:57.962Z,99914.53
2022-08-01T14:37:59.602Z,99917.97
2022-08-01T14:43:02.265Z,99916.78
2022-08-01T14:48:04.139Z,99911.44
2022-08-01T14:53:05.732Z,99915.34
2022-08-01T14:58:07.357Z,99916.34
2022-08-01T15:03:09.157Z,99904.72
2022-08-01T15:08:10.731Z,99920.34
2022-08-01T15:13:12.397Z,99905.69
2022-08-01T15:18:13.993Z,99913.22
2022-08-01T15:23:15.603Z,99903.75
2022-08-01T15:28:17.311Z,99916.25
2022-08-01T15:33:18.989Z,99915.69
2022-08-01T15:38:20.641Z,99913.38
2022-08-01T15:43:22.250Z,99934.03
2022-08-01T15:48:24.092Z,99950.22
2022-08-01T15:53:25.742Z,99950.81
2022-08-01T15:58:27.381Z,99965.41
2022-08-01T16:03:29.057Z,99951.81
2022-08-01T16:08:30.725Z,99969.22
2022-08-01T16:13:32.413Z,99976.28
2022-08-01T16:18:34.108Z,99968.81
2022-08-01T16:23:35.697Z,99986.25
2022-08-01T16:28:37.838Z,99967.53
2022-08-01T16:33:51.682Z,99987.97
2022-08-01T16:38:56.205Z,99986.09
2022-08-01T16:43:58.241Z,99986.94
2022-08-01T16:49:00.058Z,99985.28
2022-08-01T16:54:01.756Z,99981.16
2022-08-01T16:59:03.496Z,99985.28
2022-08-01T17:04:05.207Z,99989.81
2022-08-01T17:09:06.885Z,99986.66
2022-08-01T17:14:08.482Z,99987.28
2022-08-01T17:19:10.238Z,99983.88
2022-08-01T17:24:16.530Z,99999.16
2022-08-01T17:29:18.386Z,100003.81
2022-08-01T17:34:19.984Z,100008.91
2022-08-01T17:39:23.766Z,100027.56
2022-08-01T17:44:41.547Z,100030.56
2022-08-01T17:49:54.899Z,100048.81
2022-08-01T17:54:58.138Z,100047.22
2022-08-01T17:59:59.795Z,100063.34
2022-08-01T18:05:01.429Z,100067.78
2022-08-01T18:10:11.624Z,100069.09
2022-08-01T18:15:15.120Z,100066.41
2022-08-01T18:20:16.969Z,100064.50
2022-08-01T18:25:20.005Z,100070.63
2022-08-01T18:30:21.680Z,100079.94
2022-08-01T18:35:24.227Z,100079.31
2022-08-01T18:40:46.102Z,100082.53
2022-08-01T18:45:47.847Z,100080.56
2022-08-01T18:50:49.475Z,100079.25
2022-08-01T18:55:51.171Z,100092.78
2022-08-01T19:00:52.884Z,100092.81
2022-08-01T19:05:54.496Z,100102.00
2022-08-01T19:10:56.115Z,100123.72
2022-08-01T19:15:58.485Z,100132.75
2022-08-01T19:21:01.027Z,100132.75
2022-08-01T19:26:04.785Z,100138.09
2022-08-01T19:31:08.447Z,100138.94
2022-08-01T19:36:16.645Z,100156.66
2022-08-01T19:41:19.227Z,100155.09
2022-08-01T19:46:20.969Z,100155.19
2022-08-01T19:51:33.076Z,100162.28
2022-08-01T19:56:40.909Z,100159.91
2022-08-01T20:01:43.889Z,100165.41
2022-08-01T20:06:46.735Z,100164.09
2022-08-01T20:11:51.489Z,100173.53
2022-08-01T20:16:54.748Z,100172.50
2022-08-01T20:22:04.634Z,100167.72
2022-08-01T20:27:07.746Z,100179.69
2022-08-01T20:32:09.797Z,100188.50
2022-08-01T20:37:13.225Z,100195.06
2022-08-01T20:42:16.134Z,100196.38
2022-08-01T20:47:18.064Z,100198.09
2022-08-01T20:52:21.026Z,100193.75
2022-08-01T20:57:25.420Z,100186.53
2022-08-01T21:02:35.891Z,100187.22
2022-08-01T21:07:57.533Z,100187.22
2022-08-01T21:13:07.571Z,100178.31
2022-08-01T21:18:27.888Z,100190.75
2022-08-01T21:23:59.324Z,100181.00
2022-08-01T21:29:05.104Z,100185.72
2022-08-01T21:34:08.183Z,100182.44
2022-08-01T21:39:10.381Z,100188.59
2022-08-01T21:44:14.711Z,100194.16
2022-08-01T21:49:16.310Z,100203.72
2022-08-01T21:54:28.580Z,100199.97
2022-08-01T21:59:48.712Z,100206.75
2022-08-01T22:05:00.368Z,100218.78
2022-08-01T22:10:05.765Z,100211.47
2022-08-01T22:15:08.412Z,100215.94
2022-08-01T22:20:10.503Z,100220.06
2022-08-01T22:25:12.378Z,100207.19
2022-08-01T22:30:16.647Z,100206.59
2022-08-01T22:35:18.288Z,100200.72
2022-08-01T22:40:19.891Z,100219.81
2022-08-01T22:45:40.364Z,100213.06
2022-08-01T22:50:47.107Z,100205.59
2022-08-01T22:55:58.585Z,100222.63
2022-08-01T23:01:02.448Z,100226.63
2022-08-01T23:06:45.128Z,100223.09
2022-08-01T23:11:47.258Z,100226.53
2022-08-01T23:16:51.136Z,100242.78
2022-08-01T23:21:52.876Z,100234.50
2022-08-01T23:26:55.423Z,100244.72
2022-08-01T23:32:02.728Z,100248.41
2022-08-01T23:37:05.237Z,100250.09
2022-08-01T23:42:08.106Z,100247.97
2022-08-01T23:47:10.078Z,100246.44
2022-08-01T23:52:20.833Z,100252.47
2022-08-01T23:57:23.380Z,100259.28
